This is the latest recevied weather packets stored in our database for station/object IU2RPR-3. If no packets are shown the sender has not sent any weather packets the latest 10 day(s).
| Time | Temp. | Humidity | Pressure | Rain* | Wind** | Luminosity | Snow |
|---|---|---|---|---|---|---|---|
| 1777738918 | 26.67° C | 28% | 1022.5 hPa | - | - | - | - |
| 1777737117 | 28.89° C | 25% | 1022.6 hPa | - | - | - | - |
| 1777735315 | 28.33° C | 25% | 1022.8 hPa | - | - | - | - |
| 1777733514 | 27.22° C | 26% | 1023.1 hPa | - | - | - | - |
| 1777731713 | 26.11° C | 28% | 1023.6 hPa | - | - | - | - |
| 1777729912 | 27.22° C | 28% | 1023.9 hPa | - | - | - | - |
| 1777728111 | 24.44° C | 30% | 1024.7 hPa | - | - | - | - |
| 1777726309 | 26.11° C | 29% | 1024.9 hPa | - | - | - | - |
| 1777724508 | 23.89° C | 32% | 1025.6 hPa | - | - | - | - |
| 1777722707 | 23.89° C | 31% | 1026 hPa | - | - | - | - |
| 1777720906 | 22.78° C | 35% | 1026.5 hPa | - | - | - | - |
| 1777719104 | 22.22° C | 34% | 1027 hPa | - | - | - | - |
| 1777717303 | 21.67° C | 37% | 1027.5 hPa | - | - | - | - |
| 1777715502 | 20° C | 37% | 1028 hPa | - | - | - | - |
| 1777713701 | 19.44° C | 38% | 1028.3 hPa | - | - | - | - |
| 1777711899 | 18.89° C | 41% | 1028.6 hPa | - | - | - | - |
| 1777710098 | 17.78° C | 45% | 1028.8 hPa | - | - | - | - |
| 1777708297 | 17.22° C | 46% | 1029.1 hPa | - | - | - | - |
| 1777706496 | 16.11° C | 50% | 1029.4 hPa | - | - | - | - |
| 1777704694 | 15.56° C | 49% | 1029.5 hPa | - | - | - | - |
| 1777702893 | 14.44° C | 53% | 1029.5 hPa | - | - | - | - |
| 1777701092 | 13.33° C | 55% | 1029.5 hPa | - | - | - | - |
| 1777699291 | 12.78° C | 56% | 1029.6 hPa | - | - | - | - |
| 1777697489 | 11.67° C | 58% | 1029.3 hPa | - | - | - | - |
| 1777695688 | 11.11° C | 59% | 1029.5 hPa | - | - | - | - |
* Rain since midnight (hover to see other rain measurements)
** Current wind speed in m/s (hover to see current wind gust speed)